Time;durP1;ratioP1;P1;durP2;ratioP2;P2;SDS_P1;SDS_P2;PMS_P1;PMS_P2;Temp;Humidity;BMP_temperature;BMP_pressure;BME280_temperature;BME280_humidity;BME280_pressure;Samples;Min_cycle;Max_cycle;Signal;HPM_P1;HPM_P2
2023/09/25 00:00:36;;;;;;;1.70;1.40;;;;;;;;;;5078991;28;20411;-61
2023/09/25 00:03:04;;;;;;;2.67;1.42;;;;;;;;;;5080662;28;20405;-61
2023/09/25 00:05:31;;;;;;;3.40;1.60;;;;;;;;;;5081369;28;20485;-61
2023/09/25 00:07:58;;;;;;;2.28;1.58;;;;;;;;;;5078311;28;20412;-61
2023/09/25 00:10:25;;;;;;;3.67;1.60;;;;;;;;;;5080981;28;20884;-60
2023/09/25 00:12:53;;;;;;;2.75;1.52;;;;;;;;;;5079042;28;20435;-61
2023/09/25 00:15:20;;;;;;;3.63;1.35;;;;;;;;;;5078997;28;20862;-61
2023/09/25 00:17:48;;;;;;;1.90;1.45;;;;;;;;;;5078910;28;20407;-61
2023/09/25 00:20:19;;;;;;;1.95;1.42;;;;;;;;;;5080944;28;20461;-60
2023/09/25 00:22:47;;;;;;;2.10;1.30;;;;;;;;;;5081462;28;20410;-60
2023/09/25 00:25:14;;;;;;;2.35;1.52;;;;;;;;;;5082517;28;20411;-61
2023/09/25 00:27:41;;;;;;;3.35;1.58;;;;;;;;;;5079160;28;20411;-61
2023/09/25 00:30:10;;;;;;;3.15;1.40;;;;;;;;;;5069760;28;20403;-61
2023/09/25 00:32:37;;;;;;;2.83;1.50;;;;;;;;;;5069884;28;20449;-60
2023/09/25 00:35:07;;;;;;;2.65;1.50;;;;;;;;;;5070384;28;20411;-60
2023/09/25 00:37:34;;;;;;;2.22;1.33;;;;;;;;;;5070093;28;20419;-60
2023/09/25 00:40:12;;;;;;;2.97;1.60;;;;;;;;;;5069702;28;20422;-61
2023/09/25 00:42:40;;;;;;;3.00;1.23;;;;;;;;;;5080924;28;20438;-60
2023/09/25 00:45:07;;;;;;;3.03;1.60;;;;;;;;;;5069606;28;20449;-61
2023/09/25 00:47:36;;;;;;;2.13;1.30;;;;;;;;;;5071387;28;20552;-61
2023/09/25 00:50:04;;;;;;;3.40;1.23;;;;;;;;;;5073574;28;20400;-60
2023/09/25 00:52:33;;;;;;;1.55;1.27;;;;;;;;;;5073500;28;20770;-61
2023/09/25 00:55:00;;;;;;;1.90;1.40;;;;;;;;;;5080807;28;20877;-60
2023/09/25 00:57:27;;;;;;;2.42;1.02;;;;;;;;;;5083816;28;20457;-61
2023/09/25 00:59:54;;;;;;;1.75;1.20;;;;;;;;;;5082207;28;20417;-60
2023/09/25 01:02:22;;;;;;;2.15;1.30;;;;;;;;;;5084271;28;20515;-61
2023/09/25 01:04:50;;;;;;;1.95;1.30;;;;;;;;;;5080524;28;20414;-60
2023/09/25 01:07:17;;;;;;;2.47;1.55;;;;;;;;;;5082066;28;20415;-60
2023/09/25 01:09:44;;;;;;;1.80;1.33;;;;;;;;;;5083142;28;20412;-61
2023/09/25 01:12:13;;;;;;;2.13;1.27;;;;;;;;;;5084320;28;20920;-59
2023/09/25 01:14:40;;;;;;;2.80;1.50;;;;;;;;;;5082973;28;20409;-59
2023/09/25 01:17:07;;;;;;;3.35;1.27;;;;;;;;;;5082166;28;20407;-61
2023/09/25 01:19:34;;;;;;;2.53;1.35;;;;;;;;;;5084201;28;20408;-61
2023/09/25 01:22:03;;;;;;;2.10;1.20;;;;;;;;;;5083529;28;20491;-61
2023/09/25 01:24:30;;;;;;;2.28;1.20;;;;;;;;;;5085594;28;20406;-60
2023/09/25 01:26:57;;;;;;;2.22;1.20;;;;;;;;;;5085070;28;20795;-61
2023/09/25 01:29:24;;;;;;;1.60;1.00;;;;;;;;;;5084124;28;20409;-59
2023/09/25 01:31:51;;;;;;;3.00;1.30;;;;;;;;;;5082320;28;20928;-61
2023/09/25 01:34:18;;;;;;;1.90;1.23;;;;;;;;;;5081651;28;20468;-60
2023/09/25 01:36:45;;;;;;;1.73;1.23;;;;;;;;;;5081590;28;20411;-60
2023/09/25 01:39:14;;;;;;;2.90;1.40;;;;;;;;;;5081823;28;20411;-61
2023/09/25 01:41:41;;;;;;;2.88;1.20;;;;;;;;;;5083913;28;20505;-60
2023/09/25 01:44:08;;;;;;;1.88;1.10;;;;;;;;;;5082550;28;20491;-61
2023/09/25 01:46:35;;;;;;;2.67;1.40;;;;;;;;;;5081265;28;20881;-60
2023/09/25 01:49:02;;;;;;;2.00;1.20;;;;;;;;;;5083271;28;20522;-60
2023/09/25 01:51:29;;;;;;;1.80;1.20;;;;;;;;;;5083452;28;20413;-60
2023/09/25 01:53:56;;;;;;;1.98;1.25;;;;;;;;;;5083568;28;20946;-60
2023/09/25 01:56:25;;;;;;;1.92;1.23;;;;;;;;;;5086273;28;20408;-61
2023/09/25 01:58:52;;;;;;;1.80;1.20;;;;;;;;;;5080865;28;20415;-59
2023/09/25 02:01:19;;;;;;;2.10;1.17;;;;;;;;;;5082887;28;20428;-60
2023/09/25 02:03:46;;;;;;;2.30;1.10;;;;;;;;;;5083499;28;22171;-59
2023/09/25 02:06:13;;;;;;;2.08;1.08;;;;;;;;;;5081194;28;20434;-61
2023/09/25 02:08:41;;;;;;;2.38;1.20;;;;;;;;;;5081965;28;20415;-61
2023/09/25 02:11:08;;;;;;;2.35;1.20;;;;;;;;;;5083494;28;20408;-59
2023/09/25 02:13:36;;;;;;;2.80;1.00;;;;;;;;;;5081985;28;20458;-61
2023/09/25 02:16:03;;;;;;;2.58;1.30;;;;;;;;;;5080670;28;20408;-59
2023/09/25 02:18:30;;;;;;;2.85;1.30;;;;;;;;;;5082706;28;20459;-59
2023/09/25 02:20:57;;;;;;;3.70;1.20;;;;;;;;;;5083052;28;20905;-61
2023/09/25 02:23:24;;;;;;;2.00;1.10;;;;;;;;;;5083488;28;20406;-60
2023/09/25 02:25:51;;;;;;;1.77;1.27;;;;;;;;;;5083415;28;20414;-61
2023/09/25 02:28:19;;;;;;;2.75;1.30;;;;;;;;;;5083309;28;20819;-59
2023/09/25 02:30:47;;;;;;;2.55;1.15;;;;;;;;;;5081405;28;20778;-61
2023/09/25 02:33:14;;;;;;;2.30;1.10;;;;;;;;;;5080338;28;20420;-60
2023/09/25 02:35:41;;;;;;;1.90;1.00;;;;;;;;;;5082397;28;20410;-61
2023/09/25 02:38:08;;;;;;;2.17;1.20;;;;;;;;;;5082415;28;20417;-61
2023/09/25 02:40:35;;;;;;;2.38;1.20;;;;;;;;;;5081329;28;20408;-61
2023/09/25 02:43:02;;;;;;;2.15;1.30;;;;;;;;;;5081890;28;20818;-61
2023/09/25 02:45:29;;;;;;;2.55;1.23;;;;;;;;;;5082519;28;20459;-61
2023/09/25 02:47:57;;;;;;;2.95;1.40;;;;;;;;;;5080547;28;20412;-59
2023/09/25 02:50:24;;;;;;;1.65;1.20;;;;;;;;;;5080378;28;20481;-61
2023/09/25 02:52:51;;;;;;;2.50;1.13;;;;;;;;;;5082615;28;20467;-61
2023/09/25 02:55:18;;;;;;;2.65;1.20;;;;;;;;;;5081000;28;20412;-59
2023/09/25 02:57:46;;;;;;;2.08;1.30;;;;;;;;;;5082796;28;20418;-60
2023/09/25 03:00:13;;;;;;;3.20;1.42;;;;;;;;;;5083475;28;20419;-60
2023/09/25 03:02:41;;;;;;;3.13;1.70;;;;;;;;;;5084351;28;20410;-61
2023/09/25 03:05:10;;;;;;;2.58;1.48;;;;;;;;;;5082144;28;20411;-59
2023/09/25 03:07:37;;;;;;;2.45;1.20;;;;;;;;;;5087751;28;20513;-60
2023/09/25 03:10:05;;;;;;;2.95;1.50;;;;;;;;;;5082821;28;20410;-61
2023/09/25 03:12:32;;;;;;;1.88;1.20;;;;;;;;;;5087237;28;20468;-61
2023/09/25 03:14:59;;;;;;;2.25;1.10;;;;;;;;;;5083306;28;20410;-61
2023/09/25 03:17:26;;;;;;;1.70;1.30;;;;;;;;;;5083801;28;20494;-59
2023/09/25 03:19:53;;;;;;;2.20;1.30;;;;;;;;;;5084008;28;20409;-61
2023/09/25 03:22:21;;;;;;;3.07;1.57;;;;;;;;;;5086188;28;20477;-61
2023/09/25 03:24:49;;;;;;;3.17;1.40;;;;;;;;;;5084379;28;20410;-61
2023/09/25 03:27:17;;;;;;;2.50;1.30;;;;;;;;;;5081537;28;20894;-60
2023/09/25 03:29:44;;;;;;;2.10;1.33;;;;;;;;;;5080626;28;20428;-61
2023/09/25 03:32:11;;;;;;;1.90;1.30;;;;;;;;;;5082028;28;20808;-61
2023/09/25 03:34:38;;;;;;;2.85;1.42;;;;;;;;;;5080110;28;20457;-61
2023/09/25 03:37:05;;;;;;;1.73;1.27;;;;;;;;;;5079862;28;20461;-61
2023/09/25 03:39:34;;;;;;;3.80;1.47;;;;;;;;;;5081751;28;20421;-61
2023/09/25 03:42:01;;;;;;;2.23;1.40;;;;;;;;;;5080987;28;20421;-60
2023/09/25 03:44:27;;;;;;;4.07;1.80;;;;;;;;;;5079311;28;20472;-61
2023/09/25 03:46:54;;;;;;;3.00;1.70;;;;;;;;;;5079121;28;20882;-61
2023/09/25 03:49:21;;;;;;;2.15;1.33;;;;;;;;;;5079661;28;20466;-61
2023/09/25 03:51:48;;;;;;;2.17;1.40;;;;;;;;;;5082297;28;20406;-61
2023/09/25 03:54:15;;;;;;;2.95;1.30;;;;;;;;;;5082809;28;20428;-61
2023/09/25 03:56:44;;;;;;;3.20;1.50;;;;;;;;;;5083557;28;20410;-61
2023/09/25 03:59:12;;;;;;;2.60;1.40;;;;;;;;;;5080326;28;20718;-61
2023/09/25 04:01:39;;;;;;;2.20;1.45;;;;;;;;;;5079098;28;20781;-60
2023/09/25 04:04:07;;;;;;;2.40;1.25;;;;;;;;;;5081055;28;20405;-60
2023/09/25 04:06:34;;;;;;;2.13;1.50;;;;;;;;;;5081635;28;20402;-60
2023/09/25 04:09:01;;;;;;;2.00;1.20;;;;;;;;;;5070303;28;20852;-61
2023/09/25 04:11:28;;;;;;;2.75;1.30;;;;;;;;;;5070001;28;20481;-61
2023/09/25 04:13:57;;;;;;;1.88;1.40;;;;;;;;;;5069798;28;20426;-62
2023/09/25 04:16:24;;;;;;;2.45;1.42;;;;;;;;;;5070402;28;20468;-60
2023/09/25 04:18:51;;;;;;;3.80;1.30;;;;;;;;;;5070194;28;20465;-61
2023/09/25 04:21:18;;;;;;;2.78;1.58;;;;;;;;;;5079475;28;20415;-61
2023/09/25 04:23:45;;;;;;;3.28;1.30;;;;;;;;;;5085764;28;20876;-61
2023/09/25 04:26:13;;;;;;;2.65;1.50;;;;;;;;;;5085219;28;20407;-59
2023/09/25 04:28:40;;;;;;;1.92;1.30;;;;;;;;;;5084111;28;20417;-61
2023/09/25 04:31:10;;;;;;;1.90;1.40;;;;;;;;;;5085467;28;20412;-60
2023/09/25 04:33:38;;;;;;;3.10;1.67;;;;;;;;;;5084063;28;20427;-60
2023/09/25 04:36:09;;;;;;;1.65;1.27;;;;;;;;;;5082758;28;20465;-60
2023/09/25 04:38:36;;;;;;;1.90;1.38;;;;;;;;;;5084269;28;20405;-61
2023/09/25 04:41:04;;;;;;;2.28;1.40;;;;;;;;;;5085186;28;20409;-60
2023/09/25 04:43:32;;;;;;;2.33;1.50;;;;;;;;;;5083269;28;20399;-62
2023/09/25 04:46:00;;;;;;;3.58;1.40;;;;;;;;;;5082711;28;20411;-61
2023/09/25 04:48:30;;;;;;;2.03;1.30;;;;;;;;;;5082864;28;20421;-61
2023/09/25 04:50:57;;;;;;;1.75;1.42;;;;;;;;;;5082947;28;21108;-61
2023/09/25 04:53:24;;;;;;;3.88;1.60;;;;;;;;;;5085960;28;20422;-61
2023/09/25 04:55:52;;;;;;;4.28;1.40;;;;;;;;;;5083918;28;20402;-60
2023/09/25 04:58:19;;;;;;;2.13;1.60;;;;;;;;;;5082809;28;20446;-61
2023/09/25 05:00:46;;;;;;;2.33;1.58;;;;;;;;;;5082280;28;20495;-61
2023/09/25 05:03:13;;;;;;;2.75;1.50;;;;;;;;;;5080563;28;20414;-62
2023/09/25 05:05:42;;;;;;;2.55;1.50;;;;;;;;;;5084608;28;20514;-60
2023/09/25 05:08:09;;;;;;;3.53;1.50;;;;;;;;;;5084291;28;20414;-62
2023/09/25 05:10:36;;;;;;;2.85;1.50;;;;;;;;;;5082269;28;20481;-59
2023/09/25 05:13:03;;;;;;;3.95;1.70;;;;;;;;;;5083379;28;20425;-60
2023/09/25 05:15:30;;;;;;;3.10;1.63;;;;;;;;;;5083576;28;20846;-61
2023/09/25 05:17:57;;;;;;;1.88;1.35;;;;;;;;;;5083638;28;20417;-59
2023/09/25 05:20:26;;;;;;;2.70;1.40;;;;;;;;;;5081039;28;20777;-61
2023/09/25 05:22:55;;;;;;;2.50;1.45;;;;;;;;;;5082287;28;20864;-61
2023/09/25 05:25:23;;;;;;;5.38;1.55;;;;;;;;;;5090134;28;20430;-62
2023/09/25 05:27:50;;;;;;;2.95;1.45;;;;;;;;;;5084533;28;20405;-60
2023/09/25 05:30:18;;;;;;;2.00;1.40;;;;;;;;;;5083139;28;20407;-60
2023/09/25 05:32:46;;;;;;;2.00;1.55;;;;;;;;;;5081453;28;20424;-61
2023/09/25 05:35:13;;;;;;;3.10;1.67;;;;;;;;;;5083095;28;20414;-62
2023/09/25 05:37:41;;;;;;;2.90;1.60;;;;;;;;;;5084191;28;20416;-61
2023/09/25 05:40:10;;;;;;;3.70;1.60;;;;;;;;;;5083677;28;20694;-61
2023/09/25 05:42:37;;;;;;;2.47;1.40;;;;;;;;;;5084067;28;20439;-61
2023/09/25 05:45:05;;;;;;;3.08;1.42;;;;;;;;;;5083688;28;20405;-59
2023/09/25 05:47:32;;;;;;;2.55;1.50;;;;;;;;;;5080518;28;20478;-60
2023/09/25 05:49:59;;;;;;;1.88;1.30;;;;;;;;;;5084068;28;20468;-60
2023/09/25 05:52:27;;;;;;;2.17;1.55;;;;;;;;;;5082752;28;20454;-61
2023/09/25 05:54:53;;;;;;;2.92;1.65;;;;;;;;;;5087909;28;20908;-61
2023/09/25 05:57:22;;;;;;;2.00;1.30;;;;;;;;;;5083334;28;20408;-60
2023/09/25 05:59:49;;;;;;;2.38;1.60;;;;;;;;;;5082008;28;20418;-64
2023/09/25 06:02:16;;;;;;;1.50;1.33;;;;;;;;;;5084131;28;20409;-57
2023/09/25 06:04:43;;;;;;;2.17;1.60;;;;;;;;;;5082404;28;20947;-60
2023/09/25 06:07:10;;;;;;;3.10;1.67;;;;;;;;;;5081345;28;20460;-60
2023/09/25 06:09:37;;;;;;;3.17;1.70;;;;;;;;;;5083369;28;20428;-60
2023/09/25 06:12:04;;;;;;;2.17;1.48;;;;;;;;;;5082775;28;20412;-58
2023/09/25 06:14:32;;;;;;;2.75;1.75;;;;;;;;;;5084194;28;20430;-60
2023/09/25 06:16:59;;;;;;;3.30;1.60;;;;;;;;;;5084381;28;20475;-60
2023/09/25 06:19:27;;;;;;;3.13;1.77;;;;;;;;;;5081687;28;20492;-60
2023/09/25 06:21:54;;;;;;;2.03;1.58;;;;;;;;;;5083782;28;20826;-60
2023/09/25 06:24:21;;;;;;;3.47;1.90;;;;;;;;;;5087253;28;20461;-60
2023/09/25 06:26:49;;;;;;;3.33;1.63;;;;;;;;;;5083965;28;20418;-59
2023/09/25 06:29:16;;;;;;;2.72;1.50;;;;;;;;;;5083122;28;20409;-60
2023/09/25 06:31:45;;;;;;;3.80;1.77;;;;;;;;;;5077493;28;20425;-60
2023/09/25 06:34:12;;;;;;;3.25;1.67;;;;;;;;;;5077919;28;20429;-61
2023/09/25 06:36:39;;;;;;;3.33;1.70;;;;;;;;;;5079615;28;20407;-60
2023/09/25 06:39:09;;;;;;;2.92;1.70;;;;;;;;;;5081902;28;20463;-60
2023/09/25 06:41:36;;;;;;;3.70;1.50;;;;;;;;;;5082988;28;20745;-60
2023/09/25 06:44:05;;;;;;;3.08;1.73;;;;;;;;;;5081057;28;20916;-61
2023/09/25 06:46:32;;;;;;;2.42;1.50;;;;;;;;;;5080318;28;20848;-60
2023/09/25 06:49:00;;;;;;;3.67;1.65;;;;;;;;;;5080357;28;20408;-58
2023/09/25 06:51:27;;;;;;;2.80;1.70;;;;;;;;;;5081073;28;20391;-57
2023/09/25 06:53:54;;;;;;;2.97;1.60;;;;;;;;;;5087711;28;20471;-60
2023/09/25 06:56:21;;;;;;;2.58;1.70;;;;;;;;;;5084733;28;20931;-58
2023/09/25 06:58:48;;;;;;;2.08;1.40;;;;;;;;;;5080006;28;20415;-59
2023/09/25 07:01:17;;;;;;;2.88;1.73;;;;;;;;;;5081955;28;20413;-59
2023/09/25 07:03:44;;;;;;;3.20;1.85;;;;;;;;;;5082566;28;20505;-60
2023/09/25 07:06:13;;;;;;;5.40;1.50;;;;;;;;;;5070974;28;20400;-59
2023/09/25 07:08:41;;;;;;;4.00;1.80;;;;;;;;;;5071355;28;20411;-58
2023/09/25 07:11:08;;;;;;;3.10;1.67;;;;;;;;;;5071218;28;20437;-60
2023/09/25 07:13:35;;;;;;;3.00;1.60;;;;;;;;;;5070821;28;20939;-59
2023/09/25 07:16:06;;;;;;;2.10;1.52;;;;;;;;;;5070602;28;20415;-60
2023/09/25 07:18:33;;;;;;;4.28;1.70;;;;;;;;;;5081340;28;20465;-60
2023/09/25 07:21:00;;;;;;;2.40;1.63;;;;;;;;;;5081324;28;20468;-60
2023/09/25 07:23:29;;;;;;;3.22;1.70;;;;;;;;;;5084307;28;20896;-60
2023/09/25 07:26:07;;;;;;;4.40;1.70;;;;;;;;;;5084895;28;20417;-60
2023/09/25 07:28:34;;;;;;;2.50;1.45;;;;;;;;;;5079614;28;20421;-60
2023/09/25 07:31:01;;;;;;;3.35;1.95;;;;;;;;;;5082003;28;20417;-60
2023/09/25 07:33:29;;;;;;;2.50;1.65;;;;;;;;;;5080394;28;20794;-61
2023/09/25 07:35:56;;;;;;;2.80;1.55;;;;;;;;;;5079365;28;20481;-60
2023/09/25 07:38:23;;;;;;;3.00;1.73;;;;;;;;;;5080126;28;20400;-60
2023/09/25 07:40:52;;;;;;;3.80;1.70;;;;;;;;;;5079790;28;20919;-58
2023/09/25 07:43:19;;;;;;;2.88;1.50;;;;;;;;;;5081853;28;20803;-60
2023/09/25 07:45:48;;;;;;;3.45;1.70;;;;;;;;;;5080157;28;20910;-62
2023/09/25 07:48:16;;;;;;;3.40;1.88;;;;;;;;;;5079540;28;20440;-59
2023/09/25 07:50:43;;;;;;;4.80;1.90;;;;;;;;;;5080961;28;20817;-60
2023/09/25 07:53:10;;;;;;;2.70;1.70;;;;;;;;;;5081317;28;20409;-60
2023/09/25 07:55:38;;;;;;;2.33;1.40;;;;;;;;;;5084098;28;20447;-60
2023/09/25 07:58:07;;;;;;;3.42;1.70;;;;;;;;;;5079740;28;20457;-60
2023/09/25 08:00:37;;;;;;;4.38;1.55;;;;;;;;;;5069936;28;20535;-60
2023/09/25 08:03:06;;;;;;;4.03;1.73;;;;;;;;;;5070535;28;20453;-58
2023/09/25 08:05:34;;;;;;;4.00;1.70;;;;;;;;;;5079830;28;20413;-60
2023/09/25 08:08:01;;;;;;;4.35;1.67;;;;;;;;;;5081031;28;20417;-59
2023/09/25 08:10:28;;;;;;;4.20;1.90;;;;;;;;;;5079001;28;20430;-60
2023/09/25 08:12:55;;;;;;;3.53;1.80;;;;;;;;;;5080459;28;20413;-59
2023/09/25 08:15:24;;;;;;;2.33;1.50;;;;;;;;;;5081423;28;20489;-60
2023/09/25 08:17:51;;;;;;;3.85;1.48;;;;;;;;;;5078138;28;20404;-60
2023/09/25 08:20:20;;;;;;;2.53;1.60;;;;;;;;;;5081091;28;20810;-61
2023/09/25 08:22:47;;;;;;;2.97;1.58;;;;;;;;;;5070298;28;20408;-62
2023/09/25 08:25:15;;;;;;;3.28;1.70;;;;;;;;;;5083219;28;20897;-60
2023/09/25 08:27:42;;;;;;;2.13;1.35;;;;;;;;;;5081788;28;20895;-61
2023/09/25 08:30:09;;;;;;;2.87;1.60;;;;;;;;;;5080077;28;20459;-58
2023/09/25 08:32:38;;;;;;;4.30;1.45;;;;;;;;;;5078978;28;20448;-59
2023/09/25 08:35:05;;;;;;;3.30;1.50;;;;;;;;;;5080294;28;20575;-60
2023/09/25 08:37:32;;;;;;;2.78;1.40;;;;;;;;;;5080345;28;20780;-61
2023/09/25 08:39:59;;;;;;;2.38;1.58;;;;;;;;;;5082073;28;20410;-61
2023/09/25 08:42:27;;;;;;;3.15;1.67;;;;;;;;;;5081631;28;20425;-61
2023/09/25 08:45:00;;;;;;;3.88;1.70;;;;;;;;;;5082288;28;20406;-61
2023/09/25 08:47:27;;;;;;;2.42;1.60;;;;;;;;;;5078871;28;20419;-61
2023/09/25 08:49:56;;;;;;;2.50;1.60;;;;;;;;;;5080683;28;20402;-64
2023/09/25 08:52:24;;;;;;;4.78;1.63;;;;;;;;;;5075669;28;20488;-60
2023/09/25 08:54:51;;;;;;;3.70;1.90;;;;;;;;;;5081418;28;20951;-60
2023/09/25 08:57:19;;;;;;;2.38;1.55;;;;;;;;;;5076376;28;20458;-60
2023/09/25 08:59:46;;;;;;;3.07;1.60;;;;;;;;;;5080624;28;20406;-56
2023/09/25 09:02:14;;;;;;;2.50;1.70;;;;;;;;;;5078313;28;20506;-59
2023/09/25 09:04:41;;;;;;;3.63;1.75;;;;;;;;;;5080131;28;20926;-60
2023/09/25 09:07:10;;;;;;;3.03;1.73;;;;;;;;;;5080512;28;20409;-61
2023/09/25 09:09:38;;;;;;;2.15;1.50;;;;;;;;;;5085271;28;20410;-61
2023/09/25 09:12:07;;;;;;;2.13;1.50;;;;;;;;;;5087109;28;20422;-60
2023/09/25 09:14:35;;;;;;;2.72;1.73;;;;;;;;;;5080976;28;20925;-60
2023/09/25 09:17:04;;;;;;;3.17;1.90;;;;;;;;;;5086706;28;20412;-60
2023/09/25 09:19:35;;;;;;;2.42;1.58;;;;;;;;;;5081974;28;20591;-60
2023/09/25 09:22:04;;;;;;;2.88;1.90;;;;;;;;;;5081339;28;20399;-60
2023/09/25 09:24:33;;;;;;;2.78;1.60;;;;;;;;;;5085011;28;20494;-60
2023/09/25 09:27:01;;;;;;;3.13;1.45;;;;;;;;;;5084397;28;20888;-60
2023/09/25 09:29:28;;;;;;;2.83;1.60;;;;;;;;;;5080275;28;20844;-60
2023/09/25 09:31:56;;;;;;;3.88;2.42;;;;;;;;;;5082745;28;20409;-59
2023/09/25 09:34:24;;;;;;;3.63;2.20;;;;;;;;;;5081116;28;20973;-55
2023/09/25 09:36:52;;;;;;;3.60;1.55;;;;;;;;;;5084720;28;20839;-62
2023/09/25 09:39:21;;;;;;;2.65;1.30;;;;;;;;;;5078741;28;20425;-60
2023/09/25 09:41:51;;;;;;;2.85;1.40;;;;;;;;;;5079998;28;20445;-56
2023/09/25 09:44:18;;;;;;;3.08;1.50;;;;;;;;;;5079543;28;20431;-58
2023/09/25 09:46:46;;;;;;;5.43;1.52;;;;;;;;;;5080287;28;20412;-57
2023/09/25 09:49:15;;;;;;;2.08;1.40;;;;;;;;;;5082615;28;20406;-57
2023/09/25 09:51:44;;;;;;;2.28;1.27;;;;;;;;;;5079824;28;20399;-58
2023/09/25 09:54:12;;;;;;;2.80;1.40;;;;;;;;;;5079512;28;20423;-59
2023/09/25 09:56:40;;;;;;;1.83;1.33;;;;;;;;;;5083867;28;20523;-61
2023/09/25 09:59:08;;;;;;;3.70;1.38;;;;;;;;;;5083339;28;20880;-61
2023/09/25 10:01:36;;;;;;;2.30;1.35;;;;;;;;;;5079083;28;20411;-62
2023/09/25 10:04:05;;;;;;;2.20;1.23;;;;;;;;;;5081569;28;20412;-61
2023/09/25 10:06:32;;;;;;;2.85;1.58;;;;;;;;;;5082988;28;20409;-61
2023/09/25 10:09:03;;;;;;;1.92;1.30;;;;;;;;;;5081507;28;20513;-61
2023/09/25 10:11:30;;;;;;;2.25;1.30;;;;;;;;;;5079627;28;20410;-60
2023/09/25 10:14:01;;;;;;;1.73;1.10;;;;;;;;;;5079436;28;20406;-59
2023/09/25 10:16:31;;;;;;;2.58;1.35;;;;;;;;;;5082751;28;20402;-61
2023/09/25 10:18:58;;;;;;;1.85;1.10;;;;;;;;;;5081438;28;20780;-60
2023/09/25 10:21:25;;;;;;;2.67;1.40;;;;;;;;;;5080225;28;20407;-61
2023/09/25 10:23:54;;;;;;;2.17;1.35;;;;;;;;;;5084898;28;20413;-59
2023/09/25 10:26:21;;;;;;;1.73;1.10;;;;;;;;;;5083640;28;20755;-60
2023/09/25 10:28:58;;;;;;;2.03;1.30;;;;;;;;;;5082074;28;20406;-60
2023/09/25 10:31:29;;;;;;;2.83;1.48;;;;;;;;;;5080106;28;20504;-60
2023/09/25 10:33:59;;;;;;;2.92;1.30;;;;;;;;;;5078862;28;20435;-65
2023/09/25 10:36:37;;;;;;;2.97;1.40;;;;;;;;;;5077902;28;20445;-59
2023/09/25 10:39:06;;;;;;;2.10;1.40;;;;;;;;;;5079803;28;20410;-61
2023/09/25 10:41:33;;;;;;;2.25;1.13;;;;;;;;;;5081446;28;20415;-62
2023/09/25 10:44:00;;;;;;;2.40;1.30;;;;;;;;;;5078715;28;20429;-57
2023/09/25 10:46:27;;;;;;;2.70;0.93;;;;;;;;;;5079817;28;20414;-56
2023/09/25 10:48:55;;;;;;;2.60;1.20;;;;;;;;;;5081363;28;20467;-59
2023/09/25 10:51:24;;;;;;;2.27;1.30;;;;;;;;;;5080269;28;20426;-59
2023/09/25 10:53:51;;;;;;;2.00;1.13;;;;;;;;;;5088529;28;20410;-59
2023/09/25 10:56:18;;;;;;;2.67;1.38;;;;;;;;;;5081525;28;20488;-59
2023/09/25 10:58:50;;;;;;;2.67;1.35;;;;;;;;;;5081639;28;20409;-58
2023/09/25 11:01:17;;;;;;;2.22;1.23;;;;;;;;;;5082664;28;20410;-59
2023/09/25 11:03:44;;;;;;;1.85;1.10;;;;;;;;;;5081671;28;20961;-58
2023/09/25 11:06:11;;;;;;;2.58;1.27;;;;;;;;;;5083046;28;20398;-58
2023/09/25 11:08:39;;;;;;;2.97;1.40;;;;;;;;;;5079294;28;20411;-58
2023/09/25 11:11:07;;;;;;;3.45;1.30;;;;;;;;;;5080274;28;20414;-59
2023/09/25 11:13:34;;;;;;;2.17;1.20;;;;;;;;;;5081558;28;20505;-57
2023/09/25 11:16:01;;;;;;;2.40;1.15;;;;;;;;;;5080249;28;20427;-58
2023/09/25 11:18:30;;;;;;;1.90;1.00;;;;;;;;;;5078710;28;21272;-58
2023/09/25 11:20:57;;;;;;;4.22;1.20;;;;;;;;;;5081327;28;20413;-59
2023/09/25 11:23:25;;;;;;;3.00;1.17;;;;;;;;;;5079247;28;20415;-60
2023/09/25 11:25:54;;;;;;;2.72;1.05;;;;;;;;;;5082494;28;20405;-59
2023/09/25 11:28:22;;;;;;;2.30;1.15;;;;;;;;;;5079435;28;20527;-59
2023/09/25 11:30:49;;;;;;;2.83;1.20;;;;;;;;;;5080412;28;20416;-59
2023/09/25 11:33:18;;;;;;;2.10;1.23;;;;;;;;;;5080151;28;20410;-60
2023/09/25 11:35:45;;;;;;;2.27;1.23;;;;;;;;;;5079052;28;20434;-58
2023/09/25 11:38:15;;;;;;;3.40;1.10;;;;;;;;;;5079887;28;20926;-60
2023/09/25 11:40:43;;;;;;;2.40;1.00;;;;;;;;;;5081584;28;20416;-61
2023/09/25 11:43:12;;;;;;;2.67;1.08;;;;;;;;;;5079697;28;20424;-59
2023/09/25 11:45:40;;;;;;;2.03;1.20;;;;;;;;;;5081098;28;20408;-60
2023/09/25 11:48:08;;;;;;;1.80;1.20;;;;;;;;;;5079557;28;20413;-62
2023/09/25 11:50:35;;;;;;;2.05;1.25;;;;;;;;;;5077803;28;20450;-63
2023/09/25 11:53:02;;;;;;;1.40;1.02;;;;;;;;;;5071024;28;20416;-62
2023/09/25 11:55:29;;;;;;;1.70;1.00;;;;;;;;;;5081459;28;20455;-63
2023/09/25 11:57:58;;;;;;;2.50;1.10;;;;;;;;;;5080931;28;20410;-62
2023/09/25 12:00:27;;;;;;;1.92;1.10;;;;;;;;;;5080492;28;20506;-65
2023/09/25 12:02:54;;;;;;;1.60;1.10;;;;;;;;;;5078182;28;20783;-64
2023/09/25 12:05:22;;;;;;;1.67;1.10;;;;;;;;;;5080451;28;20516;-59
2023/09/25 12:07:49;;;;;;;1.80;1.07;;;;;;;;;;5080513;28;21037;-58
2023/09/25 12:10:17;;;;;;;1.67;1.20;;;;;;;;;;5078233;28;20405;-59
2023/09/25 12:12:45;;;;;;;1.80;1.10;;;;;;;;;;5076435;28;20659;-59
2023/09/25 12:15:13;;;;;;;2.33;1.17;;;;;;;;;;5078306;28;20434;-61
2023/09/25 12:17:42;;;;;;;1.47;1.00;;;;;;;;;;5079554;28;20405;-60
2023/09/25 12:20:14;;;;;;;2.35;1.10;;;;;;;;;;5081404;28;20417;-58
2023/09/25 12:22:41;;;;;;;3.35;1.20;;;;;;;;;;5076944;28;20875;-59
2023/09/25 12:25:11;;;;;;;1.98;1.10;;;;;;;;;;5086299;28;20498;-58
2023/09/25 12:27:38;;;;;;;1.70;1.10;;;;;;;;;;5081384;28;20419;-59
2023/09/25 12:30:07;;;;;;;1.83;1.13;;;;;;;;;;5078432;28;20471;-62
2023/09/25 12:32:34;;;;;;;1.80;1.20;;;;;;;;;;5082585;28;20836;-63
2023/09/25 12:35:02;;;;;;;1.77;1.20;;;;;;;;;;5078525;28;20422;-60
2023/09/25 12:37:29;;;;;;;1.65;1.10;;;;;;;;;;5078553;28;20396;-62
2023/09/25 12:39:56;;;;;;;1.63;1.00;;;;;;;;;;5081617;28;20776;-62
2023/09/25 12:42:23;;;;;;;1.60;1.00;;;;;;;;;;5077219;28;20411;-62
2023/09/25 12:44:51;;;;;;;1.83;1.00;;;;;;;;;;5082923;28;20431;-63
2023/09/25 12:47:18;;;;;;;2.05;1.17;;;;;;;;;;5081684;28;20411;-62
2023/09/25 12:49:45;;;;;;;3.22;1.20;;;;;;;;;;5082837;28;20411;-63
2023/09/25 12:52:14;;;;;;;1.50;1.15;;;;;;;;;;5081649;28;20434;-62
2023/09/25 12:54:41;;;;;;;1.90;1.17;;;;;;;;;;5085735;28;20795;-62
2023/09/25 12:57:08;;;;;;;2.17;1.15;;;;;;;;;;5083199;28;20981;-63
2023/09/25 12:59:35;;;;;;;3.28;1.02;;;;;;;;;;5084357;28;20414;-63
2023/09/25 13:02:02;;;;;;;2.30;1.10;;;;;;;;;;5080213;28;20844;-63
2023/09/25 13:04:30;;;;;;;2.60;1.08;;;;;;;;;;5084162;28;20436;-63
2023/09/25 13:06:57;;;;;;;1.92;1.08;;;;;;;;;;5082699;28;20498;-62
2023/09/25 13:09:25;;;;;;;2.25;1.10;;;;;;;;;;5082650;28;20823;-64
2023/09/25 13:11:52;;;;;;;3.40;1.33;;;;;;;;;;5082200;28;20834;-62
2023/09/25 13:14:20;;;;;;;2.10;1.23;;;;;;;;;;5082622;28;20458;-61
2023/09/25 13:16:48;;;;;;;2.65;1.15;;;;;;;;;;5084713;28;20422;-60
2023/09/25 13:19:15;;;;;;;2.50;1.25;;;;;;;;;;5082848;28;20810;-61
2023/09/25 13:21:42;;;;;;;2.03;1.20;;;;;;;;;;5082259;28;20433;-62
2023/09/25 13:24:09;;;;;;;2.63;1.58;;;;;;;;;;5085034;28;20417;-61
2023/09/25 13:26:38;;;;;;;4.07;2.00;;;;;;;;;;5085118;28;20415;-62
2023/09/25 13:29:05;;;;;;;4.20;1.20;;;;;;;;;;5085577;28;20406;-60
2023/09/25 13:31:33;;;;;;;2.88;1.70;;;;;;;;;;5084767;28;20485;-60
2023/09/25 13:34:00;;;;;;;2.53;1.27;;;;;;;;;;5082189;28;20423;-60
2023/09/25 13:36:28;;;;;;;3.47;1.70;;;;;;;;;;5083217;28;20475;-61
2023/09/25 13:38:55;;;;;;;3.75;1.52;;;;;;;;;;5084430;28;20474;-61
2023/09/25 13:41:22;;;;;;;2.80;1.45;;;;;;;;;;5081661;28;20419;-60
2023/09/25 13:43:50;;;;;;;3.50;1.85;;;;;;;;;;5082300;28;20412;-63
2023/09/25 13:46:17;;;;;;;3.60;1.83;;;;;;;;;;5083198;28;20398;-61
2023/09/25 13:48:44;;;;;;;2.88;1.27;;;;;;;;;;5080150;28;20410;-61
2023/09/25 13:51:11;;;;;;;3.53;1.37;;;;;;;;;;5084130;28;20497;-62
2023/09/25 13:53:39;;;;;;;2.80;1.50;;;;;;;;;;5081592;28;20432;-62
2023/09/25 13:56:06;;;;;;;2.90;1.30;;;;;;;;;;5088023;28;20835;-63
2023/09/25 13:58:34;;;;;;;2.40;1.30;;;;;;;;;;5072902;28;20408;-62
2023/09/25 14:01:05;;;;;;;2.03;1.20;;;;;;;;;;5072408;28;20893;-62
2023/09/25 14:03:32;;;;;;;2.80;1.30;;;;;;;;;;5080179;28;20413;-61
2023/09/25 14:06:03;;;;;;;2.08;1.10;;;;;;;;;;5082964;28;20417;-61
2023/09/25 14:08:30;;;;;;;2.53;1.20;;;;;;;;;;5080987;28;20414;-58
2023/09/25 14:10:58;;;;;;;1.90;1.25;;;;;;;;;;5081955;28;20406;-61
2023/09/25 14:13:25;;;;;;;2.63;1.40;;;;;;;;;;5082833;28;20923;-59
2023/09/25 14:15:52;;;;;;;2.88;1.30;;;;;;;;;;5078456;28;20423;-60
2023/09/25 14:18:21;;;;;;;3.90;1.48;;;;;;;;;;5081084;28;20892;-60
2023/09/25 14:20:49;;;;;;;1.95;1.20;;;;;;;;;;5077099;28;20965;-63
2023/09/25 14:23:17;;;;;;;1.65;1.20;;;;;;;;;;5077464;28;20414;-60
2023/09/25 14:25:44;;;;;;;2.10;1.30;;;;;;;;;;5079703;28;20491;-60
2023/09/25 14:28:11;;;;;;;3.13;1.60;;;;;;;;;;5083649;28;20421;-60
2023/09/25 14:30:38;;;;;;;1.90;1.33;;;;;;;;;;5080454;28;20408;-60
2023/09/25 14:33:06;;;;;;;2.03;1.50;;;;;;;;;;5084101;28;20410;-61
2023/09/25 14:35:35;;;;;;;2.38;1.40;;;;;;;;;;5080175;28;20413;-60
2023/09/25 14:38:02;;;;;;;2.37;1.30;;;;;;;;;;5082541;28;20414;-61
2023/09/25 14:40:31;;;;;;;2.20;1.40;;;;;;;;;;5078385;28;20407;-60
2023/09/25 14:42:59;;;;;;;2.55;1.48;;;;;;;;;;5082319;28;20410;-61
2023/09/25 14:45:27;;;;;;;1.88;1.33;;;;;;;;;;5078260;28;20412;-60